Time;durP1;ratioP1;P1;durP2;ratioP2;P2;SDS_P1;SDS_P2;PMS_P1;PMS_P2;Temp;Humidity;BMP_temperature;BMP_pressure;BME280_temperature;BME280_humidity;BME280_pressure;Samples;Min_cycle;Max_cycle;Signal;HPM_P1;HPM_P2
2023/09/06 00:01:29;;;;;;;;;;;;;;;23.60;42.73;101796.38;4964717;28;122889;-67
2023/09/06 00:03:56;;;;;;;;;;;;;;;23.58;42.53;101790.25;4954586;28;114653;-67
2023/09/06 00:06:24;;;;;;;;;;;;;;;23.55;42.49;101785.97;4969634;28;113860;-67
2023/09/06 00:08:51;;;;;;;;;;;;;;;23.51;42.72;101779.09;4952542;28;125063;-67
2023/09/06 00:11:18;;;;;;;;;;;;;;;23.47;42.84;101794.72;4966494;28;124388;-67
2023/09/06 00:13:46;;;;;;;;;;;;;;;23.44;42.57;101789.56;4966350;28;115407;-67
2023/09/06 00:16:13;;;;;;;;;;;;;;;23.41;42.69;101789.81;4969128;28;115528;-67
2023/09/06 00:18:40;;;;;;;;;;;;;;;23.36;42.83;101792.06;4968844;28;124995;-67
2023/09/06 00:21:07;;;;;;;;;;;;;;;23.30;42.83;101797.97;4970142;28;124170;-67
2023/09/06 00:23:34;;;;;;;;;;;;;;;23.22;42.85;101795.06;4952554;28;114861;-67
2023/09/06 00:26:01;;;;;;;;;;;;;;;23.13;42.79;101797.56;4967008;28;114542;-67
2023/09/06 00:28:28;;;;;;;;;;;;;;;23.08;42.82;101807.88;4970035;28;123118;-66
2023/09/06 00:30:57;;;;;;;;;;;;;;;23.01;42.97;101798.53;4954197;28;122854;-67
2023/09/06 00:33:26;;;;;;;;;;;;;;;22.94;42.91;101802.72;4967622;28;115346;-66
2023/09/06 00:35:54;;;;;;;;;;;;;;;22.85;42.81;101803.47;4969908;28;114135;-66
2023/09/06 00:38:21;;;;;;;;;;;;;;;22.78;42.99;101796.88;4968358;28;124507;-66
2023/09/06 00:40:51;;;;;;;;;;;;;;;22.71;42.93;101791.97;4966674;28;124410;-66
2023/09/06 00:43:18;;;;;;;;;;;;;;;22.65;43.01;101792.47;4953696;28;114175;-66
2023/09/06 00:45:50;;;;;;;;;;;;;;;22.59;42.97;101798.38;4950548;28;113405;-66
2023/09/06 00:48:26;;;;;;;;;;;;;;;22.55;43.26;101791.50;4964767;28;123286;-66
2023/09/06 00:50:54;;;;;;;;;;;;;;;22.51;43.20;101795.44;4968484;28;124300;-65
2023/09/06 00:53:22;;;;;;;;;;;;;;;22.47;43.30;101794.84;4957776;28;113496;-65
2023/09/06 00:55:49;;;;;;;;;;;;;;;22.47;43.34;101793.94;4971070;28;113690;-66
2023/09/06 00:58:17;;;;;;;;;;;;;;;22.46;43.46;101797.66;4963621;28;124762;-65
2023/09/06 01:00:46;;;;;;;;;;;;;;;22.46;43.43;101797.66;4960518;28;124583;-65
2023/09/06 01:03:14;;;;;;;;;;;;;;;22.47;43.54;101805.63;4947958;28;114671;-66
2023/09/06 01:05:47;;;;;;;;;;;;;;;22.48;43.38;101801.09;4952737;28;114916;-66
2023/09/06 01:08:18;;;;;;;;;;;;;;;22.49;43.53;101797.38;4952788;28;123857;-66
2023/09/06 01:10:45;;;;;;;;;;;;;;;22.48;43.56;101792.97;4968393;28;125633;-66
2023/09/06 01:13:12;;;;;;;;;;;;;;;22.49;43.67;101791.97;4981965;28;113852;-66
2023/09/06 01:15:42;;;;;;;;;;;;;;;22.49;43.56;101797.38;4966593;28;113270;-66
2023/09/06 01:18:10;;;;;;;;;;;;;;;22.49;43.61;101802.78;4968403;28;123954;-66
2023/09/06 01:20:42;;;;;;;;;;;;;;;22.48;43.67;101795.69;4966480;28;123033;-66
2023/09/06 01:23:24;;;;;;;;;;;;;;;22.48;43.56;101795.69;4953598;28;113681;-66
2023/09/06 01:25:52;;;;;;;;;;;;;;;22.48;43.66;101792.97;4959102;28;113388;-66
2023/09/06 01:28:19;;;;;;;;;;;;;;;22.48;43.63;101790.28;4968053;28;123617;-66
2023/09/06 01:30:47;;;;;;;;;;;;;;;22.47;43.61;101800.22;4972245;28;123600;-66
2023/09/06 01:33:16;;;;;;;;;;;;;;;22.48;43.67;101806.47;4961043;28;113562;-66
2023/09/06 01:35:43;;;;;;;;;;;;;;;22.46;43.66;101803.06;4969765;28;114114;-66
2023/09/06 01:38:11;;;;;;;;;;;;;;;22.44;43.70;101802.31;4951245;28;123904;-66
2023/09/06 01:40:38;;;;;;;;;;;;;;;22.40;43.67;101804.41;4969731;28;124723;-66
2023/09/06 01:43:07;;;;;;;;;;;;;;;22.35;43.62;101802.06;4972034;28;113449;-66
2023/09/06 01:45:37;;;;;;;;;;;;;;;22.30;43.63;101798.88;4953977;28;113845;-66
2023/09/06 01:48:04;;;;;;;;;;;;;;;22.25;43.70;101795.69;4970840;28;124260;-66
2023/09/06 01:50:31;;;;;;;;;;;;;;;22.21;43.82;101788.78;4973072;28;124472;-66
2023/09/06 01:52:58;;;;;;;;;;;;;;;22.18;43.88;101802.50;4970869;28;115555;-66
2023/09/06 01:55:26;;;;;;;;;;;;;;;22.15;43.77;101808.13;4971261;28;115244;-66
2023/09/06 01:57:53;;;;;;;;;;;;;;;22.11;43.75;101798.56;4954880;28;123460;-66
2023/09/06 02:00:31;;;;;;;;;;;;;;;22.08;43.81;101809.63;4954664;28;123232;-66
2023/09/06 02:02:59;;;;;;;;;;;;;;;22.02;43.81;101799.28;4972416;28;113437;-66
2023/09/06 02:05:26;;;;;;;;;;;;;;;21.98;43.88;101809.47;4956027;28;113020;-66
2023/09/06 02:07:53;;;;;;;;;;;;;;;21.92;43.89;101800.00;4955505;28;123274;-66
2023/09/06 02:10:21;;;;;;;;;;;;;;;21.89;44.08;101811.06;4971974;28;123227;-66
2023/09/06 02:12:48;;;;;;;;;;;;;;;21.85;44.06;101804.19;4970815;28;114373;-66
2023/09/06 02:15:15;;;;;;;;;;;;;;;21.83;44.11;101808.84;4955417;28;112836;-66
2023/09/06 02:17:44;;;;;;;;;;;;;;;21.80;44.16;101811.75;4954624;28;123581;-66
2023/09/06 02:20:19;;;;;;;;;;;;;;;21.77;44.24;101815.56;4969584;28;125742;-66
2023/09/06 02:22:48;;;;;;;;;;;;;;;21.75;44.23;101819.34;4972729;28;115040;-66
2023/09/06 02:25:16;;;;;;;;;;;;;;;21.73;44.14;101821.31;4970537;28;114176;-66
2023/09/06 02:27:43;;;;;;;;;;;;;;;21.69;44.17;101819.81;4962517;28;123274;-66
2023/09/06 02:30:10;;;;;;;;;;;;;;;21.64;44.16;101814.75;4970585;28;123913;-66
2023/09/06 02:32:37;;;;;;;;;;;;;;;21.61;44.22;101822.25;4968953;28;113865;-66
2023/09/06 02:35:08;;;;;;;;;;;;;;;21.56;44.14;101820.75;4971181;28;114162;-67
2023/09/06 02:37:35;;;;;;;;;;;;;;;21.52;44.29;101824.66;4969565;28;124510;-66
2023/09/06 02:40:07;;;;;;;;;;;;;;;21.49;44.25;101834.81;4969645;28;125012;-66
2023/09/06 02:42:36;;;;;;;;;;;;;;;21.44;44.35;101827.09;4969122;28;117420;-66
2023/09/06 02:45:09;;;;;;;;;;;;;;;21.41;44.30;101832.66;4955768;28;114211;-66
2023/09/06 02:47:37;;;;;;;;;;;;;;;21.36;44.26;101834.84;4951151;28;123968;-67
2023/09/06 02:50:06;;;;;;;;;;;;;;;21.31;44.24;101837.03;4972837;28;123074;-67
2023/09/06 02:52:35;;;;;;;;;;;;;;;21.26;44.40;101839.19;4964561;28;113719;-67
2023/09/06 02:55:05;;;;;;;;;;;;;;;21.19;44.42;101839.66;4971056;28;112087;-67
2023/09/06 02:57:32;;;;;;;;;;;;;;;21.16;44.47;101834.50;4968987;28;125136;-66
2023/09/06 02:59:59;;;;;;;;;;;;;;;21.12;44.39;101835.72;4968598;28;124018;-67
2023/09/06 03:02:26;;;;;;;;;;;;;;;21.09;44.51;101837.75;4969067;28;113277;-67
2023/09/06 03:05:03;;;;;;;;;;;;;;;21.05;44.49;101839.81;4964606;28;113920;-67
2023/09/06 03:07:32;;;;;;;;;;;;;;;21.01;44.55;101827.56;4932568;28;123755;-67
2023/09/06 03:09:59;;;;;;;;;;;;;;;20.99;44.53;101834.88;4970790;28;123685;-66
2023/09/06 03:12:29;;;;;;;;;;;;;;;20.97;44.59;101839.53;4960360;28;113658;-66
2023/09/06 03:14:58;;;;;;;;;;;;;;;20.94;44.70;101840.59;4949030;28;113514;-66
2023/09/06 03:17:26;;;;;;;;;;;;;;;20.91;44.64;101840.84;4968578;28;124873;-66
2023/09/06 03:19:59;;;;;;;;;;;;;;;20.90;44.74;101843.63;4952560;28;124075;-66
2023/09/06 03:22:27;;;;;;;;;;;;;;;20.87;44.71;101838.47;4964337;28;114521;-66
2023/09/06 03:24:55;;;;;;;;;;;;;;;20.84;44.68;101838.72;4951589;28;113499;-66
2023/09/06 03:27:22;;;;;;;;;;;;;;;20.80;44.57;101838.91;4968602;28;124545;-66
2023/09/06 03:29:51;;;;;;;;;;;;;;;20.76;44.66;101836.56;4971030;28;122738;-66
2023/09/06 03:32:22;;;;;;;;;;;;;;;20.73;44.81;101843.03;4954531;28;114690;-66
2023/09/06 03:34:51;;;;;;;;;;;;;;;20.69;44.70;101841.53;4954600;28;113770;-66
2023/09/06 03:37:18;;;;;;;;;;;;;;;20.66;44.79;101847.13;4953508;28;123411;-66
2023/09/06 03:39:47;;;;;;;;;;;;;;;20.61;44.86;101849.31;4951462;28;122207;-66
2023/09/06 03:42:15;;;;;;;;;;;;;;;20.56;44.89;101843.34;4970398;28;113736;-66
2023/09/06 03:44:46;;;;;;;;;;;;;;;20.52;44.98;101844.53;4972045;28;114140;-66
2023/09/06 03:47:14;;;;;;;;;;;;;;;20.49;44.86;101844.75;4969132;28;124712;-66
2023/09/06 03:49:43;;;;;;;;;;;;;;;20.46;44.98;101842.28;4971505;28;124592;-66
2023/09/06 03:52:16;;;;;;;;;;;;;;;20.41;44.91;101838.06;4970365;28;115911;-66
2023/09/06 03:54:43;;;;;;;;;;;;;;;20.38;45.11;101848.19;4963547;28;114570;-66
2023/09/06 03:57:12;;;;;;;;;;;;;;;20.35;45.02;101843.03;4944633;28;122981;-66
2023/09/06 03:59:41;;;;;;;;;;;;;;;20.32;45.16;101849.47;4964397;28;124548;-66
2023/09/06 04:02:13;;;;;;;;;;;;;;;20.30;45.15;101846.03;4960432;28;113800;-66
2023/09/06 04:04:42;;;;;;;;;;;;;;;20.30;45.20;101846.03;4966385;28;116267;-66
2023/09/06 04:07:09;;;;;;;;;;;;;;;20.28;45.28;101847.97;4962167;28;124538;-66
2023/09/06 04:09:39;;;;;;;;;;;;;;;20.28;45.35;101847.97;4965995;28;124241;-65
2023/09/06 04:12:06;;;;;;;;;;;;;;;20.27;45.35;101851.66;4951583;28;114337;-65
2023/09/06 04:14:35;;;;;;;;;;;;;;;20.27;45.37;101861.53;4966164;28;112729;-65
2023/09/06 04:17:07;;;;;;;;;;;;;;;20.26;45.26;101860.69;4967123;28;123819;-65
2023/09/06 04:19:35;;;;;;;;;;;;;;;20.24;45.36;101857.25;4954023;28;123733;-65
2023/09/06 04:22:03;;;;;;;;;;;;;;;20.23;45.46;101856.38;4966043;28;115890;-65
2023/09/06 04:24:36;;;;;;;;;;;;;;;20.26;45.43;101859.84;4960343;28;113724;-66
2023/09/06 04:27:06;;;;;;;;;;;;;;;20.24;45.50;101851.88;4963210;28;123444;-66
2023/09/06 04:29:33;;;;;;;;;;;;;;;20.24;45.51;101857.25;4934103;28;122883;-66
2023/09/06 04:32:01;;;;;;;;;;;;;;;20.26;45.63;101859.84;4967931;28;114771;-66
2023/09/06 04:34:28;;;;;;;;;;;;;;;20.25;45.47;101867.06;4952088;28;112883;-65
2023/09/06 04:36:55;;;;;;;;;;;;;;;20.24;45.44;101868.00;4960487;28;124646;-66
2023/09/06 04:39:25;;;;;;;;;;;;;;;20.22;45.51;101869.94;4966955;28;123572;-66
2023/09/06 04:41:52;;;;;;;;;;;;;;;20.20;45.43;101866.50;4947930;28;113623;-66
2023/09/06 04:44:24;;;;;;;;;;;;;;;20.19;45.52;101864.75;4968604;28;114073;-65
2023/09/06 04:46:54;;;;;;;;;;;;;;;20.18;45.51;101868.44;4976761;28;123375;-66
2023/09/06 04:49:21;;;;;;;;;;;;;;;20.16;45.54;101870.38;4951848;28;124345;-66
2023/09/06 04:51:48;;;;;;;;;;;;;;;20.14;45.55;101862.41;4969542;28;113685;-66
2023/09/06 04:54:17;;;;;;;;;;;;;;;20.12;45.60;101869.72;4952367;28;113015;-66
2023/09/06 04:56:44;;;;;;;;;;;;;;;20.11;45.67;101864.44;4943135;28;123214;-65
2023/09/06 04:59:12;;;;;;;;;;;;;;;20.09;45.61;101869.06;4968614;28;123209;-65
2023/09/06 05:01:39;;;;;;;;;;;;;;;20.07;45.57;101865.63;4941816;28;114969;-64
2023/09/06 05:04:06;;;;;;;;;;;;;;;20.02;45.77;101869.50;4967542;28;114566;-65
2023/09/06 05:06:34;;;;;;;;;;;;;;;20.00;45.78;101874.13;4946806;28;123825;-65
2023/09/06 05:09:01;;;;;;;;;;;;;;;19.96;45.79;101877.97;4947158;28;124771;-65
2023/09/06 05:11:28;;;;;;;;;;;;;;;19.94;45.82;101877.22;4951739;28;115843;-65
2023/09/06 05:13:56;;;;;;;;;;;;;;;19.91;45.72;101882.81;4950010;28;115258;-65
2023/09/06 05:16:26;;;;;;;;;;;;;;;19.89;45.79;101884.75;4946314;28;124353;-65
2023/09/06 05:18:54;;;;;;;;;;;;;;;19.88;45.76;101891.09;4953146;28;123412;-65
2023/09/06 05:21:25;;;;;;;;;;;;;;;19.87;45.92;101892.03;4948842;28;114112;-65
2023/09/06 05:23:52;;;;;;;;;;;;;;;19.86;45.91;101890.31;4964746;28;113018;-64
2023/09/06 05:26:20;;;;;;;;;;;;;;;19.86;45.98;101901.09;4966834;28;123683;-64
2023/09/06 05:28:48;;;;;;;;;;;;;;;19.86;46.06;101909.16;4970480;28;124462;-64
2023/09/06 05:31:16;;;;;;;;;;;;;;;19.86;46.01;101911.84;4953240;28;113680;-64
2023/09/06 05:33:44;;;;;;;;;;;;;;;19.87;45.97;101907.31;4953133;28;112878;-64
2023/09/06 05:36:14;;;;;;;;;;;;;;;19.87;45.99;101902.78;4950967;28;123466;-64
2023/09/06 05:38:41;;;;;;;;;;;;;;;19.88;46.15;101909.91;4962315;28;123546;-64
2023/09/06 05:41:10;;;;;;;;;;;;;;;19.89;46.12;101906.25;4953030;28;113363;-64
2023/09/06 05:43:50;;;;;;;;;;;;;;;19.92;46.04;101910.56;4964140;28;113258;-64
2023/09/06 05:46:21;;;;;;;;;;;;;;;19.92;46.15;101911.41;4961591;28;124752;-64
2023/09/06 05:49:08;;;;;;;;;;;;;;;19.96;46.13;101920.13;4958237;28;125257;-64
2023/09/06 05:51:39;;;;;;;;;;;;;;;19.96;46.23;101921.00;4963012;28;113871;-64
2023/09/06 05:54:07;;;;;;;;;;;;;;;19.99;46.25;101923.50;4965283;28;113825;-64
2023/09/06 05:56:36;;;;;;;;;;;;;;;20.02;46.27;101917.91;4968917;28;123500;-64
2023/09/06 05:59:03;;;;;;;;;;;;;;;20.05;46.27;101915.97;4965287;28;123215;-64
2023/09/06 06:01:30;;;;;;;;;;;;;;;20.10;46.36;101919.19;4962993;28;115732;-65
2023/09/06 06:03:58;;;;;;;;;;;;;;;20.14;46.52;101913.50;4957128;28;113651;-64
2023/09/06 06:06:26;;;;;;;;;;;;;;;20.20;46.63;101920.31;4968617;28;124697;-65
2023/09/06 06:08:53;;;;;;;;;;;;;;;20.29;46.70;101922.38;4962556;28;124360;-64
2023/09/06 06:11:22;;;;;;;;;;;;;;;20.38;46.58;101921.72;4962918;28;114931;-64
2023/09/06 06:13:52;;;;;;;;;;;;;;;20.49;46.63;101922.78;4952696;28;114595;-64
2023/09/06 06:16:36;;;;;;;;;;;;;;;20.59;46.78;101922.06;4963621;28;124863;-66
2023/09/06 06:19:03;;;;;;;;;;;;;;;20.70;46.73;101929.41;4969353;28;123902;-65
2023/09/06 06:21:31;;;;;;;;;;;;;;;20.83;46.73;101925.84;4954776;28;114194;-65
2023/09/06 06:23:58;;;;;;;;;;;;;;;20.95;46.83;101927.66;4957518;28;113674;-65
2023/09/06 06:26:25;;;;;;;;;;;;;;;21.08;46.74;101928.50;4952192;28;123057;-65
2023/09/06 06:28:54;;;;;;;;;;;;;;;21.21;46.68;101928.47;4972368;28;124354;-65
2023/09/06 06:31:21;;;;;;;;;;;;;;;21.35;46.84;101930.16;4972315;28;114661;-65
2023/09/06 06:33:48;;;;;;;;;;;;;;;21.50;46.91;101920.97;4970787;28;113624;-65
2023/09/06 06:36:15;;;;;;;;;;;;;;;21.66;47.03;101930.59;4969890;28;124902;-66
2023/09/06 06:38:44;;;;;;;;;;;;;;;21.84;46.88;101931.91;4964017;28;124947;-66
2023/09/06 06:41:22;;;;;;;;;;;;;;;22.01;46.91;101937.88;4972119;28;116032;-66
2023/09/06 06:43:50;;;;;;;;;;;;;;;22.21;46.98;101942.59;4971870;28;113976;-66
2023/09/06 06:46:24;;;;;;;;;;;;;;;22.39;46.92;101937.63;4969923;28;124227;-66
2023/09/06 06:48:52;;;;;;;;;;;;;;;22.57;47.03;101929.94;4971128;28;123982;-66
2023/09/06 06:51:21;;;;;;;;;;;;;;;22.77;46.96;101938.31;4974983;28;115622;-65
2023/09/06 06:53:48;;;;;;;;;;;;;;;22.95;46.88;101939.53;4968145;28;114726;-65
2023/09/06 06:56:21;;;;;;;;;;;;;;;23.15;47.01;101942.50;4969277;28;124667;-66
2023/09/06 06:58:48;;;;;;;;;;;;;;;23.31;46.97;101935.72;4970139;28;124000;-66
2023/09/06 07:01:15;;;;;;;;;;;;;;;23.50;46.94;101945.03;4971728;28;114122;-66
2023/09/06 07:03:42;;;;;;;;;;;;;;;23.67;46.75;101943.63;4969011;28;114010;-66
2023/09/06 07:06:09;;;;;;;;;;;;;;;23.84;47.06;101942.25;4969416;28;124685;-66
2023/09/06 07:08:36;;;;;;;;;;;;;;;24.02;46.79;101945.25;4972655;28;124526;-65
2023/09/06 07:11:04;;;;;;;;;;;;;;;24.19;46.75;101941.97;4971049;28;114647;-66
2023/09/06 07:13:31;;;;;;;;;;;;;;;24.36;46.94;101931.53;4970105;28;113555;-66
2023/09/06 07:15:59;;;;;;;;;;;;;;;24.56;46.93;101936.09;4968878;28;124069;-66
2023/09/06 07:18:26;;;;;;;;;;;;;;;24.74;46.95;101935.50;4968072;28;125392;-66
2023/09/06 07:20:53;;;;;;;;;;;;;;;24.91;46.49;101932.13;4970613;28;113346;-66
2023/09/06 07:23:21;;;;;;;;;;;;;;;25.05;46.64;101945.34;4972618;28;113859;-66
2023/09/06 07:25:48;;;;;;;;;;;;;;;25.20;46.39;101936.78;4967715;28;125755;-66
2023/09/06 07:28:15;;;;;;;;;;;;;;;25.33;46.39;101942.84;4969765;28;124211;-66
2023/09/06 07:30:42;;;;;;;;;;;;;;;25.43;46.28;101943.75;4971192;28;114586;-66
2023/09/06 07:33:09;;;;;;;;;;;;;;;25.57;46.31;101949.78;4972136;28;113876;-66
2023/09/06 07:35:36;;;;;;;;;;;;;;;25.70;46.28;101949.50;4971892;28;123943;-66
2023/09/06 07:38:03;;;;;;;;;;;;;;;25.86;46.17;101943.50;4972121;28;124476;-65
2023/09/06 07:40:30;;;;;;;;;;;;;;;25.99;46.34;101946.81;4969779;28;115510;-66
2023/09/06 07:42:57;;;;;;;;;;;;;;;26.12;46.40;101950.09;4965208;28;115258;-66
2023/09/06 07:45:24;;;;;;;;;;;;;;;26.21;46.24;101949.22;4966321;28;124166;-66
2023/09/06 07:47:52;;;;;;;;;;;;;;;26.28;46.10;101938.66;4968990;28;124276;-66
2023/09/06 07:50:19;;;;;;;;;;;;;;;26.33;45.99;101951.78;4974147;28;114607;-66
2023/09/06 07:52:46;;;;;;;;;;;;;;;26.41;45.78;101943.78;4969671;28;114487;-66
2023/09/06 07:55:13;;;;;;;;;;;;;;;26.52;46.08;101951.78;4969314;28;125034;-66
2023/09/06 07:57:40;;;;;;;;;;;;;;;26.63;46.10;101953.47;4969150;28;124158;-66
2023/09/06 08:00:08;;;;;;;;;;;;;;;26.78;46.03;101951.13;4970699;28;114112;-66
2023/09/06 08:02:38;;;;;;;;;;;;;;;26.94;46.28;101959.53;4972598;28;114201;-66
2023/09/06 08:05:05;;;;;;;;;;;;;;;27.08;45.93;101957.31;4971059;28;124421;-66
2023/09/06 08:07:32;;;;;;;;;;;;;;;27.21;45.78;101963.25;4969348;28;125646;-66
2023/09/06 08:10:01;;;;;;;;;;;;;;;27.32;45.99;101965.81;4970522;28;114887;-66
2023/09/06 08:12:28;;;;;;;;;;;;;;;27.42;45.96;101959.47;4972020;28;114283;-66
2023/09/06 08:14:55;;;;;;;;;;;;;;;27.54;45.81;101963.69;4970789;28;124701;-66
2023/09/06 08:17:22;;;;;;;;;;;;;;;27.62;45.76;101958.31;4970501;28;125113;-66
2023/09/06 08:19:49;;;;;;;;;;;;;;;27.69;45.77;101956.69;4966489;28;114502;-66
2023/09/06 08:22:16;;;;;;;;;;;;;;;27.76;45.38;101955.06;4972415;28;114115;-66
2023/09/06 08:24:43;;;;;;;;;;;;;;;27.84;45.49;101964.31;4969082;28;124395;-66
2023/09/06 08:27:10;;;;;;;;;;;;;;;27.92;45.51;101950.81;4968412;28;124163;-66
2023/09/06 08:29:37;;;;;;;;;;;;;;;28.01;45.35;101954.44;4967228;28;116071;-66
2023/09/06 08:32:04;;;;;;;;;;;;;;;28.08;45.25;101955.53;4954262;28;114256;-66
2023/09/06 08:34:32;;;;;;;;;;;;;;;28.11;45.32;101956.09;4968968;28;123944;-66
2023/09/06 08:36:59;;;;;;;;;;;;;;;28.19;45.53;101951.72;4959422;28;123583;-66
2023/09/06 08:39:26;;;;;;;;;;;;;;;28.28;45.24;101956.22;4968798;28;114642;-66
2023/09/06 08:41:55;;;;;;;;;;;;;;;28.34;45.16;101966.47;4969615;28;114333;-66
2023/09/06 08:44:24;;;;;;;;;;;;;;;28.38;45.17;101956.97;4968571;28;124452;-66
2023/09/06 08:46:53;;;;;;;;;;;;;;;28.48;45.52;101952.28;4968342;28;124102;-66
2023/09/06 08:49:20;;;;;;;;;;;;;;;28.65;45.55;101957.84;4970921;28;115556;-66
2023/09/06 08:51:48;;;;;;;;;;;;;;;28.79;45.38;101960.00;4955248;28;112807;-66
2023/09/06 08:54:15;;;;;;;;;;;;;;;28.88;45.27;101958.19;4969778;28;124029;-66
2023/09/06 08:56:43;;;;;;;;;;;;;;;28.91;45.06;101964.16;4965894;28;124004;-66
2023/09/06 08:59:10;;;;;;;;;;;;;;;28.94;44.93;101962.97;4971084;28;115959;-66
2023/09/06 09:01:37;;;;;;;;;;;;;;;28.98;45.11;101955.31;4969975;28;114126;-66
2023/09/06 09:04:05;;;;;;;;;;;;;;;29.02;45.02;101953.97;4969109;28;124484;-66
2023/09/06 09:06:32;;;;;;;;;;;;;;;29.06;44.81;101956.19;4969426;28;123191;-66
2023/09/06 09:09:18;;;;;;;;;;;;;;;29.12;45.02;101954.69;4968509;28;114662;-66
2023/09/06 09:11:49;;;;;;;;;;;;;;;29.22;44.77;101955.44;4969545;28;114216;-66
2023/09/06 09:14:23;;;;;;;;;;;;;;;29.26;44.84;101956.81;4967666;28;125004;-66
2023/09/06 09:16:54;;;;;;;;;;;;;;;29.30;44.63;101952.75;4966879;28;124268;-66
2023/09/06 09:19:22;;;;;;;;;;;;;;;29.35;44.82;101959.56;4969917;28;115442;-67
2023/09/06 09:21:50;;;;;;;;;;;;;;;29.42;44.70;101949.69;4953040;28;113688;-66
2023/09/06 09:24:29;;;;;;;;;;;;;;;29.49;44.84;101956.22;4970878;28;123975;-66
2023/09/06 09:26:57;;;;;;;;;;;;;;;29.56;44.65;101957.25;4966866;28;124974;-66
2023/09/06 09:29:24;;;;;;;;;;;;;;;29.63;44.63;101947.38;4967249;28;114881;-66
2023/09/06 09:31:51;;;;;;;;;;;;;;;29.70;44.50;101948.41;4953442;28;113083;-66
2023/09/06 09:34:18;;;;;;;;;;;;;;;29.76;44.54;101957.84;4968219;28;124583;-66
2023/09/06 09:36:49;;;;;;;;;;;;;;;29.82;44.46;101953.56;4969128;28;123333;-66
2023/09/06 09:39:18;;;;;;;;;;;;;;;29.86;44.37;101957.69;4969708;28;113601;-66
2023/09/06 09:41:45;;;;;;;;;;;;;;;29.88;44.27;101958.38;4969938;28;114076;-66
2023/09/06 09:44:25;;;;;;;;;;;;;;;29.93;44.48;101953.22;4952621;28;123160;-66
2023/09/06 09:46:54;;;;;;;;;;;;;;;29.98;44.20;101956.31;4968692;28;123183;-66
2023/09/06 09:49:21;;;;;;;;;;;;;;;30.02;44.35;101949.47;4969255;28;114415;-66
2023/09/06 09:51:50;;;;;;;;;;;;;;;30.09;44.04;101953.22;4967888;28;113961;-66
2023/09/06 09:54:20;;;;;;;;;;;;;;;30.15;44.19;101950.84;4969094;28;124395;-66
2023/09/06 09:56:55;;;;;;;;;;;;;;;30.21;44.18;101947.44;4970962;28;125033;-66
2023/09/06 09:59:23;;;;;;;;;;;;;;;30.29;44.12;101950.16;4973783;28;114594;-66
2023/09/06 10:01:51;;;;;;;;;;;;;;;30.34;44.05;101942.31;4956879;28;112767;-66
2023/09/06 10:04:19;;;;;;;;;;;;;;;30.41;43.90;101940.59;4967611;28;125079;-66
2023/09/06 10:06:47;;;;;;;;;;;;;;;30.51;43.96;101939.56;4957352;28;124052;-66
2023/09/06 10:09:15;;;;;;;;;;;;;;;30.61;43.87;101945.69;4952536;28;115727;-66
2023/09/06 10:11:42;;;;;;;;;;;;;;;30.68;43.62;101935.75;4950542;28;115117;-67
2023/09/06 10:14:11;;;;;;;;;;;;;;;30.76;43.56;101938.47;4953519;28;123893;-66
2023/09/06 10:16:38;;;;;;;;;;;;;;;30.82;43.72;101936.94;4952293;28;125364;-66
2023/09/06 10:19:05;;;;;;;;;;;;;;;30.89;43.39;101931.59;4953548;28;113481;-66
2023/09/06 10:21:33;;;;;;;;;;;;;;;30.91;43.37;101927.69;4954508;28;113593;-67
2023/09/06 10:24:00;;;;;;;;;;;;;;;30.97;43.47;101928.88;4953379;28;125474;-67
2023/09/06 10:26:30;;;;;;;;;;;;;;;31.03;43.51;101934.47;4954421;28;124816;-66
2023/09/06 10:28:58;;;;;;;;;;;;;;;31.06;43.16;101927.78;4955772;28;115977;-66
2023/09/06 10:31:35;;;;;;;;;;;;;;;31.09;43.37;101919.22;4959335;28;112316;-66
2023/09/06 10:34:03;;;;;;;;;;;;;;;31.15;43.08;101926.69;4950925;28;123712;-66
2023/09/06 10:36:47;;;;;;;;;;;;;;;31.17;42.83;101930.09;4953187;28;124948;-65
2023/09/06 10:39:16;;;;;;;;;;;;;;;31.21;43.29;101926.00;4954637;28;115116;-66
2023/09/06 10:42:06;;;;;;;;;;;;;;;31.29;43.22;101926.97;4956119;28;114035;-66
2023/09/06 10:44:52;;;;;;;;;;;;;;;31.36;43.24;101925.22;4964688;28;124862;-65
2023/09/06 10:47:25;;;;;;;;;;;;;;;31.42;43.14;101921.78;4964209;28;124325;-66
2023/09/06 10:50:12;;;;;;;;;;;;;;;31.48;43.01;101921.09;4970302;28;114789;-66
2023/09/06 10:52:40;;;;;;;;;;;;;;;31.55;42.81;101922.06;4966129;28;114292;-66
2023/09/06 10:55:13;;;;;;;;;;;;;;;31.64;42.93;101928.31;4964492;28;124475;-66
2023/09/06 10:57:47;;;;;;;;;;;;;;;31.71;43.05;101914.75;4965335;28;123950;-66
2023/09/06 11:00:25;;;;;;;;;;;;;;;31.75;42.69;101924.31;4953274;28;115363;-66
2023/09/06 11:03:04;;;;;;;;;;;;;;;31.77;42.89;101914.88;4962903;28;113906;-66
2023/09/06 11:05:35;;;;;;;;;;;;;;;31.79;42.61;101917.44;4963379;28;124399;-66
2023/09/06 11:08:04;;;;;;;;;;;;;;;31.82;42.78;101911.59;4967390;28;124400;-66
2023/09/06 11:10:35;;;;;;;;;;;;;;;31.82;42.72;101906.94;4969973;28;115044;-66
2023/09/06 11:13:10;;;;;;;;;;;;;;;31.85;42.79;101911.19;4966742;28;114237;-67
2023/09/06 11:15:38;;;;;;;;;;;;;;;31.89;42.74;101907.09;4948398;28;123965;-66
2023/09/06 11:18:05;;;;;;;;;;;;;;;31.93;42.43;101908.41;4963819;28;124583;-66
2023/09/06 11:20:32;;;;;;;;;;;;;;;31.97;42.62;101909.75;4954702;28;114108;-66
2023/09/06 11:23:00;;;;;;;;;;;;;;;32.03;42.43;101905.44;4969914;28;113707;-66
2023/09/06 11:25:28;;;;;;;;;;;;;;;32.11;42.31;101910.00;4966130;28;124423;-66
2023/09/06 11:27:59;;;;;;;;;;;;;;;32.20;42.36;101914.34;4960973;28;124030;-65
2023/09/06 11:30:31;;;;;;;;;;;;;;;32.27;42.57;101909.84;4974936;28;114944;-65
2023/09/06 11:32:58;;;;;;;;;;;;;;;32.34;42.18;101910.81;4969869;28;113955;-65
2023/09/06 11:35:27;;;;;;;;;;;;;;;32.38;42.08;101909.38;4953782;28;124065;-65
2023/09/06 11:37:55;;;;;;;;;;;;;;;32.46;42.27;101913.06;4968887;28;124635;-65
2023/09/06 11:40:27;;;;;;;;;;;;;;;32.49;41.92;101907.19;4969190;28;114833;-65
2023/09/06 11:42:56;;;;;;;;;;;;;;;32.54;41.75;101904.75;4970129;28;113897;-66
2023/09/06 11:45:25;;;;;;;;;;;;;;;32.56;42.05;101903.50;4968872;28;124264;-65
2023/09/06 11:47:53;;;;;;;;;;;;;;;32.59;41.58;101903.16;4971307;28;123304;-65
2023/09/06 11:50:23;;;;;;;;;;;;;;;32.63;41.77;101892.69;4976044;28;116163;-65
2023/09/06 11:52:53;;;;;;;;;;;;;;;32.65;41.32;101890.59;4967066;28;113666;-65
2023/09/06 11:55:26;;;;;;;;;;;;;;;32.68;41.45;101890.22;4964633;28;125096;-65
2023/09/06 11:57:57;;;;;;;;;;;;;;;32.72;41.71;101886.06;4965520;28;124046;-65
2023/09/06 12:00:35;;;;;;;;;;;;;;;32.77;41.54;101889.06;4966833;28;115351;-65
2023/09/06 12:03:08;;;;;;;;;;;;;;;32.84;41.26;101889.16;4965993;28;113715;-65
2023/09/06 12:05:36;;;;;;;;;;;;;;;32.92;41.28;101885.44;4969533;28;123921;-65
2023/09/06 12:08:22;;;;;;;;;;;;;;;32.96;41.25;101876.66;4967001;28;97139;-65
2023/09/06 12:10:58;;;;;;;;;;;;;;;32.99;41.30;101875.41;4968143;28;115212;-65
2023/09/06 12:13:29;;;;;;;;;;;;;;;33.02;40.89;101885.13;4971091;28;112879;-65
2023/09/06 12:15:57;;;;;;;;;;;;;;;33.05;41.25;101885.59;4969291;28;124322;-66
2023/09/06 12:18:25;;;;;;;;;;;;;;;33.11;41.24;101884.84;4954252;28;122905;-65
2023/09/06 12:20:52;;;;;;;;;;;;;;;33.17;40.79;101873.13;4954784;28;113432;-66
2023/09/06 12:23:20;;;;;;;;;;;;;;;33.25;40.88;101874.06;4970123;28;114361;-66
2023/09/06 12:25:47;;;;;;;;;;;;;;;33.31;40.76;101874.09;4968287;28;126017;-67
2023/09/06 12:28:14;;;;;;;;;;;;;;;33.38;41.00;101879.69;4960979;28;124487;-67
2023/09/06 12:30:41;;;;;;;;;;;;;;;33.41;40.63;101878.44;4966887;28;114587;-67
2023/09/06 12:33:08;;;;;;;;;;;;;;;33.38;40.33;101879.69;4971549;28;113852;-67
2023/09/06 12:35:38;;;;;;;;;;;;;;;33.40;40.43;101872.09;4953632;28;124211;-66
2023/09/06 12:38:08;;;;;;;;;;;;;;;33.44;40.51;101870.66;4959549;28;123945;-67